Data for 04/30/2018

Time Sea-Level Adjusted Pressure Absolute Pressure Temperature Relative Humidity Dew Point   
(mb) (inHg) (mb) (inHg) (C) (F) (%) (C) (F)
00:05 1013 29.91 843 24.89 4.9 40.9 85 2.7 36.8
00:10 1013 29.91 842 24.86 5 40.9 85 2.7 36.8
00:15 1013 29.91 843 24.89 5 41 83 2.3 36.2
00:20 1013 29.91 843 24.89 4.9 40.9 82 2.1 35.8
00:25 1013 29.91 843 24.89 4.9 40.8 82 2.1 35.8
00:30 1013 29.91 842 24.86 4.9 40.8 82 2.1 35.7
00:35 1013 29.91 842 24.86 4.8 40.6 81 1.7 35.1
00:40 1013 29.91 842 24.86 4.8 40.6 82 1.9 35.4
00:45 1013 29.91 842 24.86 4.8 40.7 82 2 35.6
00:50 1013 29.91 843 24.89 4.8 40.7 81 1.9 35.4
00:55 1013 29.91 843 24.89 4.8 40.7 81 1.8 35.3
01:00 1013 29.91 843 24.89 4.8 40.6 81 1.8 35.2
01:05 1013 29.91 843 24.89 4.7 40.4 82 1.9 35.4
01:10 1013 29.91 843 24.89 4.7 40.5 82 1.9 35.5
01:15 1013 29.91 843 24.89 4.6 40.3 84 2.1 35.7
01:20 1013 29.91 843 24.89 4.5 40.1 84 2.1 35.7
01:25 1013 29.91 843 24.89 4.5 40.1 84 2 35.6
01:30 1013 29.91 842 24.86 4.5 40.2 84 2 35.6
01:35 1013 29.91 842 24.86 4.6 40.2 84 2.1 35.8
01:40 1013 29.91 842 24.86 4.5 40.2 84 2 35.6
01:45 1013 29.91 842 24.86 4.5 40.1 84 2 35.5
01:50 1013 29.91 842 24.86 4.5 40.1 84 2 35.6
01:55 1013 29.91 842 24.86 4.5 40.1 84 1.9 35.5
02:00 1013 29.91 842 24.86 4.5 40.1 84 2 35.7
02:05 1013 29.91 842 24.86 4.5 40 84 2.1 35.7
02:10 1013 29.91 842 24.86 4.4 39.9 85 2.1 35.7
02:15 1013 29.91 842 24.86 4.3 39.7 86 2.1 35.8
02:20 1013 29.91 842 24.86 4.3 39.7 86 2.2 35.9
02:25 1013 29.91 842 24.86 4.2 39.6 86 2.2 35.9
02:30 1013 29.91 842 24.86 4.2 39.5 87 2.2 36
02:35 1013 29.91 842 24.86 4.1 39.5 87 2.2 36
02:40 1013 29.91 842 24.86 4.1 39.4 87 2.2 35.9
02:45 1013 29.91 842 24.86 4.1 39.4 88 2.3 36.1
02:50 1013 29.91 842 24.86 4.2 39.5 88 2.3 36.1
02:55 1013 29.91 842 24.86 4.1 39.4 87 2.2 36
03:00 1013 29.91 842 24.86 4 39.3 88 2.2 35.9
03:05 1013 29.91 842 24.86 4.1 39.3 88 2.2 35.9
03:10 1013 29.91 842 24.86 4 39.2 88 2.1 35.8
03:15 1013 29.91 842 24.86 3.9 39.1 88 2.1 35.8
03:20 1013 29.91 842 24.86 3.9 39 88 2 35.6
03:25 1013 29.91 842 24.86 4 39.1 88 2.1 35.8
03:30 1013 29.91 842 24.86 4 39.1 88 2.1 35.8
03:35 1013 29.91 842 24.86 4 39.2 87 2.1 35.8
03:40 1013 29.91 842 24.86 4 39.2 88 2.1 35.8
03:45 1013 29.91 842 24.86 4 39.2 87 2.1 35.8
03:50 1013 29.91 842 24.86 4 39.2 87 2.1 35.7
03:55 1013 29.91 842 24.86 3.8 38.9 88 2 35.6
04:00 1013 29.91 842 24.86 3.8 38.8 88 2 35.7
04:05 1013 29.91 842 24.86 3.8 38.9 88 2.1 35.7
04:10 1013 29.91 842 24.86 3.8 38.8 89 2.1 35.8
04:15 1013 29.91 842 24.86 3.9 39 88 2.2 35.9
04:20 1013 29.91 842 24.86 3.9 38.9 89 2.2 35.9
04:25 1013 29.91 842 24.86 3.9 39 89 2.3 36.1
04:30 1013 29.91 842 24.86 3.8 38.9 89 2.2 36
04:35 1013 29.91 842 24.86 3.7 38.6 90 2.2 36
04:40 1013 29.91 842 24.86 3.7 38.6 91 2.3 36.1
04:45 1013 29.91 842 24.86 3.6 38.5 90 2.2 36
04:50 1013 29.91 843 24.89 3.6 38.6 90 2.2 36
04:55 1013 29.91 843 24.89 3.7 38.6 90 2.2 36
05:00 1013 29.91 843 24.89 3.6 38.5 90 2.2 35.9
05:05 1013 29.91 843 24.89 3.7 38.6 90 2.2 36
05:10 1013 29.91 843 24.89 3.7 38.6 90 2.2 36
05:15 1013 29.91 843 24.89 3.7 38.6 90 2.2 35.9
05:20 1013 29.91 843 24.89 3.6 38.5 90 2.1 35.8
05:25 1013 29.91 843 24.89 3.6 38.5 90 2.1 35.8
05:30 1013 29.91 843 24.89 3.4 38.2 89 1.8 35.3
05:35 1013 29.91 843 24.89 3.3 38 89 1.7 35.1
05:40 1013 29.91 843 24.89 3.3 37.9 89 1.7 35
05:45 1013 29.91 843 24.89 3.2 37.8 89 1.7 35
05:50 1013 29.91 843 24.89 3.3 37.9 89 1.7 35
05:55 1013 29.91 843 24.89 3.2 37.8 89 1.6 34.8
06:00 1013 29.91 843 24.89 3.2 37.7 89 1.5 34.7
06:05 1013 29.91 843 24.89 3.2 37.7 88 1.4 34.5
06:10 1013 29.91 843 24.89 3.1 37.6 88 1.3 34.4
06:15 1014 29.94 843 24.89 3.1 37.6 88 1.4 34.5
06:20 1014 29.94 843 24.89 3.1 37.7 88 1.3 34.3
06:25 1014 29.94 843 24.89 3.1 37.7 88 1.3 34.4
06:30 1014 29.94 843 24.89 3.1 37.6 88 1.3 34.3
06:35 1014 29.94 843 24.89 3.1 37.5 88 1.2 34.2
06:40 1014 29.94 843 24.89 3 37.5 88 1.3 34.3
06:45 1014 29.94 843 24.89 3 37.4 88 1.2 34.2
06:50 1014 29.94 843 24.89 3.1 37.5 88 1.3 34.3
06:55 1014 29.94 843 24.89 3.1 37.7 88 1.3 34.4
07:00 1014 29.94 843 24.89 3.2 37.7 87 1.2 34.1
07:05 1014 29.94 843 24.89 3.1 37.6 87 1.1 34.1
07:10 1014 29.94 843 24.89 3.1 37.5 87 1.1 34
07:15 1014 29.94 843 24.89 3 37.5 87 1.2 34.1
07:20 1014 29.94 843 24.89 2.9 37.2 88 1.1 34
07:25 1014 29.94 843 24.89 2.7 36.9 89 1.1 33.9
07:30 1014 29.94 843 24.89 2.6 36.7 89 1.1 33.9
07:35 1014 29.94 843 24.89 2.8 37 89 1.1 34
07:40 1014 29.94 843 24.89 2.7 36.9 88 1 33.8
07:45 1014 29.94 843 24.89 2.7 36.8 88 1 33.7
07:50 1014 29.94 843 24.89 2.7 36.9 89 1.1 33.9
07:55 1014 29.94 843 24.89 2.9 37.3 88 1.1 33.9
08:00 1014 29.94 843 24.89 3 37.4 88 1.2 34.1
08:05 1014 29.94 843 24.89 3 37.4 88 1.2 34.1
08:10 1014 29.94 843 24.89 2.8 37.1 87 0.9 33.7
08:15 1014 29.94 843 24.89 2.8 37.1 87 1 33.7
08:20 1014 29.94 843 24.89 3.1 37.5 86 1 33.7
08:25 1014 29.94 843 24.89 3.2 37.8 87 1.2 34.2
08:30 1014 29.94 843 24.89 3.2 37.8 87 1.2 34.1
08:35 1014 29.94 843 24.89 3.4 38 84 1 33.8
08:40 1014 29.94 843 24.89 3.5 38.3 84 1.1 34
08:45 1014 29.94 843 24.89 3.7 38.6 83 1.1 34
08:50 1014 29.94 843 24.89 3.6 38.5 84 1.1 34
08:55 1014 29.94 843 24.89 3.7 38.7 84 1.2 34.2
09:00 1014 29.94 843 24.89 3.6 38.5 84 1.2 34.2
09:05 1014 29.94 843 24.89 3.6 38.4 83 1 33.7
09:10 1014 29.94 843 24.89 3.8 38.8 82 0.9 33.7
09:15 1014 29.94 843 24.89 4 39.2 81 1 33.8
09:20 1014 29.94 843 24.89 4.1 39.4 80 1 33.7
09:25 1014 29.94 843 24.89 4.3 39.7 81 1.2 34.2
09:30 1014 29.94 843 24.89 4.3 39.7 80 1.1 33.9
09:35 1014 29.94 843 24.89 4.1 39.4 80 0.9 33.7
09:40 1014 29.94 843 24.89 4.1 39.4 79 0.8 33.5
09:45 1014 29.94 843 24.89 4.1 39.3 81 1 33.8
09:50 1014 29.94 843 24.89 4 39.3 80 0.8 33.5
09:55 1014 29.94 843 24.89 4.2 39.6 79 0.8 33.5
10:00 1014 29.94 843 24.89 4.4 40 77 0.8 33.5
10:05 1014 29.94 843 24.89 4.6 40.4 77 0.9 33.6
10:10 1014 29.94 843 24.89 4.6 40.2 77 0.9 33.5
10:15 1014 29.94 843 24.89 4.7 40.5 77 1 33.8
10:20 1014 29.94 843 24.89 5 41.1 76 1.1 34
10:25 1014 29.94 843 24.89 5.3 41.5 73 0.9 33.6
10:30 1014 29.94 843 24.89 5.6 42.1 73 1.1 34
10:35 1014 29.94 843 24.89 5.6 42.1 73 1.1 34
10:40 1014 29.94 843 24.89 6 42.9 68 0.7 33.2
10:45 1014 29.94 843 24.89 5.9 42.5 72 1.3 34.3
10:50 1014 29.94 843 24.89 5.8 42.4 71 1 33.8
10:55 1014 29.94 843 24.89 5.8 42.5 71 1 33.8
11:00 1014 29.94 843 24.89 5.6 42 73 1.1 33.9
11:05 1014 29.94 843 24.89 5.6 42.2 74 1.3 34.4
11:10 1014 29.94 843 24.89 5.4 41.7 73 1.1 33.9
11:15 1014 29.94 843 24.89 5.6 42.1 72 0.9 33.7
11:20 1014 29.94 843 24.89 5.6 42 75 1.4 34.5
11:25 1014 29.94 843 24.89 5.5 41.8 73 1 33.8
11:30 1014 29.94 843 24.89 5.7 42.2 73 1.3 34.3
11:35 1014 29.94 843 24.89 5.7 42.3 72 1.1 34
11:40 1014 29.94 843 24.89 5.5 41.9 74 1.3 34.3
11:45 1014 29.94 843 24.89 5.2 41.4 77 1.5 34.7
11:50 1014 29.94 843 24.89 4.8 40.7 78 1.4 34.5
11:55 1014 29.94 843 24.89 4.8 40.6 78 1.3 34.4
12:00 1014 29.94 843 24.89 5.1 41.1 74 0.9 33.6
12:05 1014 29.94 843 24.89 5.2 41.4 75 1.1 34
12:10 1014 29.94 843 24.89 5.5 41.9 72 0.9 33.7
12:15 1014 29.94 843 24.89 5.7 42.3 73 1.3 34.3
12:20 1014 29.94 843 24.89 5.7 42.2 73 1.2 34.2
12:25 1014 29.94 843 24.89 5.6 42.1 76 1.7 35.1
12:30 1014 29.94 843 24.89 5.5 42 78 1.9 35.5
12:35 1014 29.94 843 24.89 5.4 41.8 79 2.1 35.8
12:40 1014 29.94 843 24.89 5.4 41.7 81 2.4 36.3
12:45 1014 29.94 843 24.89 5.4 41.7 81 2.4 36.3
12:50 1014 29.94 843 24.89 5.4 41.7 81 2.5 36.5
12:55 1014 29.94 843 24.89 5.4 41.7 82 2.5 36.5
13:00 1014 29.94 843 24.89 5.3 41.6 83 2.7 36.8
13:05 1014 29.94 843 24.89 5.2 41.3 84 2.6 36.7
13:10 1014 29.94 843 24.89 5.2 41.3 83 2.5 36.6
13:15 1014 29.94 843 24.89 5.2 41.3 84 2.7 36.8
13:20 1014 29.94 843 24.89 5.3 41.5 81 2.3 36.1
13:25 1014 29.94 843 24.89 5.4 41.7 81 2.3 36.2
13:30 1014 29.94 843 24.89 5.5 41.8 81 2.4 36.3
13:35 1014 29.94 843 24.89 5.6 42.1 80 2.4 36.3
13:40 1014 29.94 843 24.89 5.7 42.2 78 2.2 36
13:45 1014 29.94 843 24.89 5.6 42.1 78 2.1 35.8
13:50 1014 29.94 843 24.89 5.7 42.3 79 2.4 36.3
13:55 1014 29.94 843 24.89 5.7 42.2 77 2 35.5
14:00 1014 29.94 843 24.89 5.7 42.2 78 2.1 35.7
14:05 1014 29.94 843 24.89 5.7 42.3 76 1.8 35.3
14:10 1014 29.94 843 24.89 5.7 42.2 75 1.7 35
14:15 1014 29.94 843 24.89 5.6 42.1 76 1.8 35.2
14:20 1014 29.94 843 24.89 5.7 42.2 75 1.7 35
14:25 1014 29.94 843 24.89 5.7 42.3 75 1.7 35.1
14:30 1014 29.94 843 24.89 5.8 42.4 75 1.7 35.1
14:35 1014 29.94 843 24.89 5.8 42.4 75 1.7 35.1
14:40 1014 29.94 843 24.89 5.6 42.1 77 1.9 35.4
14:45 1014 29.94 843 24.89 5.6 42 76 1.7 35
14:50 1014 29.94 843 24.89 5.5 41.8 75 1.3 34.4
14:55 1014 29.94 843 24.89 5.5 41.8 75 1.4 34.5
15:00 1014 29.94 843 24.89 5.6 42.1 75 1.5 34.6
15:05 1014 29.94 843 24.89 5.7 42.3 74 1.4 34.5
15:10 1014 29.94 843 24.89 5.8 42.5 72 1.1 34
15:15 1013 29.91 843 24.89 5.8 42.4 72 1.1 33.9
15:20 1013 29.91 843 24.89 5.8 42.4 74 1.4 34.6
15:25 1013 29.91 843 24.89 5.7 42.3 72 1 33.9
15:30 1013 29.91 843 24.89 5.6 42.1 74 1.3 34.4
15:35 1013 29.91 843 24.89 5.4 41.8 75 1.4 34.6
15:40 1013 29.91 843 24.89 5.5 41.9 76 1.7 35
15:45 1013 29.91 842 24.86 5.6 42 73 1.2 34.2
15:50 1013 29.91 842 24.86 5.6 42.1 74 1.3 34.3
15:55 1013 29.91 842 24.86 5.7 42.2 72 1 33.7
16:00 1013 29.91 842 24.86 5.6 42 77 1.8 35.2
16:05 1013 29.91 842 24.86 5.7 42.3 74 1.4 34.5
16:10 1013 29.91 843 24.89 5.7 42.3 75 1.6 34.9
16:15 1013 29.91 843 24.89 5.7 42.3 76 1.8 35.3
16:20 1013 29.91 843 24.89 5.7 42.3 77 1.9 35.5
16:25 1013 29.91 843 24.89 5.5 42 78 2 35.6
16:30 1013 29.91 843 24.89 5.5 41.8 80 2.3 36.2
16:35 1013 29.91 843 24.89 5.3 41.5 80 2.1 35.8
16:40 1013 29.91 843 24.89 4.7 40.4 84 2.1 35.8
16:45 1013 29.91 843 24.89 4.7 40.5 84 2.3 36.1
16:50 1013 29.91 843 24.89 4.5 40.2 84 2.1 35.8
16:55 1013 29.91 843 24.89 4.4 40 85 2.2 35.9
17:00 1013 29.91 843 24.89 4.3 39.7 82 1.6 34.8
17:05 1013 29.91 843 24.89 4.3 39.7 86 2.1 35.9
17:10 1013 29.91 843 24.89 4.5 40.1 82 1.7 35.1
17:15 1013 29.91 843 24.89 4.3 39.7 85 2 35.7
17:20 1013 29.91 843 24.89 4.3 39.8 84 1.9 35.5
17:25 1013 29.91 843 24.89 4.2 39.5 84 1.8 35.2
17:30 1013 29.91 843 24.89 4.1 39.3 84 1.6 34.9
17:35 1013 29.91 843 24.89 4 39.3 86 1.8 35.3
17:40 1013 29.91 843 24.89 4.2 39.5 86 2 35.6
17:45 1013 29.91 843 24.89 4.1 39.4 86 2 35.6
17:50 1013 29.91 843 24.89 4.1 39.4 85 1.8 35.3
17:55 1013 29.91 843 24.89 4.1 39.4 86 2 35.7
18:00 1013 29.91 843 24.89 3.9 39.1 86 1.7 35.1
18:05 1013 29.91 843 24.89 4 39.3 87 2 35.6
18:10 1013 29.91 843 24.89 4 39.3 86 1.9 35.4
18:15 1013 29.91 843 24.89 3.9 39 87 2 35.6
18:20 1013 29.91 843 24.89 3.8 38.8 87 1.8 35.3
18:25 1013 29.91 843 24.89 3.7 38.6 87 1.7 35
18:30 1013 29.91 843 24.89 3.7 38.6 89 2 35.5
18:35 1013 29.91 843 24.89 3.8 38.8 88 2 35.5
18:40 1013 29.91 843 24.89 3.6 38.5 88 1.7 35.1
18:45 1013 29.91 843 24.89 3.5 38.3 88 1.7 35.1
18:50 1013 29.91 843 24.89 3.5 38.3 88 1.7 35.1
18:55 1013 29.91 843 24.89 3.5 38.4 89 1.8 35.3
19:00 1013 29.91 843 24.89 3.5 38.3 89 1.8 35.2
19:05 1013 29.91 843 24.89 3.4 38.1 89 1.7 35
19:10 1013 29.91 843 24.89 3 37.5 90 1.5 34.7
19:15 1013 29.91 843 24.89 2.9 37.2 90 1.4 34.5
19:20 1013 29.91 843 24.89 2.8 37 90 1.4 34.5
19:25 1013 29.91 843 24.89 2.8 37 91 1.4 34.5
19:30 1013 29.91 843 24.89 2.7 36.9 91 1.3 34.4
19:35 1013 29.91 843 24.89 2.6 36.6 90 1.1 34
19:40 1013 29.91 843 24.89 2.4 36.3 91 1 33.9
19:45 1013 29.91 843 24.89 2.3 36.1 90 0.8 33.5
19:50 1013 29.91 843 24.89 2.1 35.7 90 0.6 33.2
19:55 1013 29.91 843 24.89 2 35.5 90 0.6 33
20:00 1013 29.91 843 24.89 2 35.5 91 0.6 33
20:05 1013 29.91 843 24.89 1.9 35.5 91 0.5 33
20:10 1013 29.91 843 24.89 1.8 35.2 91 0.5 32.8
20:15 1013 29.91 843 24.89 1.7 35 92 0.4 32.8
20:20 1013 29.91 843 24.89 1.7 35 92 0.4 32.8
20:25 1013 29.91 843 24.89 1.7 35.1 92 0.6 33
20:30 1013 29.91 843 24.89 1.8 35.2 92 0.6 33
20:35 1013 29.91 843 24.89 1.7 35.1 92 0.5 33
20:40 1013 29.91 843 24.89 1.7 35.1 92 0.5 32.9
20:45 1013 29.91 843 24.89 1.7 35 92 0.6 33
20:50 1013 29.91 843 24.89 1.6 34.8 92 0.4 32.8
20:55 1013 29.91 843 24.89 1.5 34.7 92 0.4 32.7
21:00 1013 29.91 843 24.89 1.5 34.8 93 0.5 32.8
21:05 1013 29.91 843 24.89 1.6 34.9 93 0.5 33
21:10 1013 29.91 843 24.89 1.7 35 93 0.6 33.1
21:15 1013 29.91 843 24.89 1.8 35.2 93 0.7 33.2
21:20 1013 29.91 843 24.89 1.9 35.3 93 0.8 33.4
21:25 1013 29.91 843 24.89 1.9 35.4 92 0.7 33.3
21:30 1014 29.94 843 24.89 1.9 35.5 92 0.8 33.4
21:35 1014 29.94 843 24.89 2.1 35.7 92 0.9 33.6
21:40 1014 29.94 843 24.89 2.1 35.7 92 0.9 33.6
21:45 1014 29.94 843 24.89 2.1 35.8 92 0.9 33.7
21:50 1014 29.94 843 24.89 2.1 35.8 92 1 33.8
21:55 1014 29.94 843 24.89 2.1 35.7 92 0.9 33.6
22:00 1014 29.94 843 24.89 2 35.5 92 0.8 33.5
22:05 1014 29.94 843 24.89 2 35.6 92 0.9 33.6
22:10 1014 29.94 843 24.89 2.1 35.8 92 1 33.8
22:15 1014 29.94 843 24.89 2.2 35.9 92 1.1 33.9
22:20 1014 29.94 843 24.89 2.2 35.9 92 1 33.9
22:25 1014 29.94 843 24.89 2.3 36.2 92 1.2 34.2
22:30 1014 29.94 843 24.89 2.4 36.3 92 1.3 34.3
22:35 1014 29.94 843 24.89 2.5 36.4 92 1.3 34.4
22:40 1013 29.91 843 24.89 2.6 36.6 92 1.4 34.5
22:45 1013 29.91 843 24.89 2.7 36.8 92 1.4 34.6
22:50 1013 29.91 843 24.89 2.7 36.9 92 1.5 34.7
22:55 1013 29.91 843 24.89 2.8 37 91 1.5 34.7
23:00 1013 29.91 843 24.89 2.8 37.1 91 1.6 34.8
23:05 1013 29.91 843 24.89 2.9 37.3 91 1.6 34.8
23:10 1013 29.91 843 24.89 3 37.4 91 1.6 34.9
23:15 1013 29.91 843 24.89 3.1 37.6 90 1.6 34.9
23:20 1013 29.91 843 24.89 3.1 37.7 90 1.7 35
23:25 1013 29.91 843 24.89 3.1 37.6 90 1.7 35
23:30 1013 29.91 843 24.89 3.1 37.6 90 1.7 35.1
23:35 1013 29.91 843 24.89 3.1 37.6 91 1.7 35.1
23:40 1013 29.91 842 24.86 3 37.5 91 1.7 35.1
23:45 1013 29.91 842 24.86 3 37.4 91 1.7 35.1
23:50 1013 29.91 842 24.86 3 37.3 92 1.7 35.1
23:55 1013 29.91 842 24.86 3 37.3 92 1.8 35.2
24:00 1013 29.91 842 24.86 3 37.4 92 1.8 35.2